Time;durP1;ratioP1;P1;durP2;ratioP2;P2;SDS_P1;SDS_P2;PMS_P1;PMS_P2;Temp;Humidity;BMP_temperature;BMP_pressure;BME280_temperature;BME280_humidity;BME280_pressure;Samples;Min_cycle;Max_cycle;Signal;HPM_P1;HPM_P2
2022/12/17 13:06:49;;;;;;;42.63;24.15;;;;;;;6.39;52.07;102554.00;4976816;28;20051;-71
2022/12/17 13:09:29;;;;;;;44.80;24.88;;;;;;;6.44;51.60;102557.03;4988259;28;20057;-67
2022/12/17 13:12:26;;;;;;;47.90;27.02;;;;;;;6.50;51.49;102561.78;4979486;28;21041;-69
2022/12/17 13:15:02;;;;;;;46.63;25.83;;;;;;;6.43;51.73;102563.38;4976622;28;20114;-69
2022/12/17 13:17:35;;;;;;;44.47;24.95;;;;;;;6.27;52.14;102556.03;4978430;28;20055;-69
2022/12/17 13:20:23;;;;;;;50.53;26.55;;;;;;;6.10;52.62;102564.88;4991382;28;20051;-70
2022/12/17 13:22:53;;;;;;;48.47;25.92;;;;;;;5.92;53.36;102558.66;4988367;28;20325;-69
2022/12/17 13:25:22;;;;;;;50.30;27.20;;;;;;;5.76;53.62;102564.63;4982980;28;20060;-70
2022/12/17 13:27:50;;;;;;;46.65;26.40;;;;;;;5.63;53.72;102554.28;5009252;28;20128;-70
2022/12/17 13:30:30;;;;;;;49.90;27.10;;;;;;;5.54;54.20;102561.34;5056542;28;20041;-71
2022/12/17 13:33:15;;;;;;;46.13;25.88;;;;;;;5.44;54.37;102557.88;5062255;28;20055;-70
2022/12/17 13:36:05;;;;;;;44.78;25.02;;;;;;;5.39;54.71;102553.97;5072257;28;20048;-69
2022/12/17 13:38:42;;;;;;;51.25;25.95;;;;;;;5.52;54.33;102544.66;5088080;28;20054;-69
2022/12/17 13:41:13;;;;;;;47.30;26.23;;;;;;;5.69;54.01;102540.34;5074835;28;20056;-68
2022/12/17 13:43:45;;;;;;;47.78;27.02;;;;;;;5.83;53.25;102539.03;5064668;28;20151;-69
2022/12/17 13:46:20;;;;;;;44.95;25.13;;;;;;;6.02;52.87;102544.28;5075428;28;20112;-69
2022/12/17 13:48:57;;;;;;;46.95;25.10;;;;;;;6.15;52.23;102544.75;5072470;28;20041;-69
2022/12/17 13:51:29;;;;;;;52.40;27.90;;;;;;;6.26;52.15;102546.34;5092364;28;20070;-70
2022/12/17 13:53:59;;;;;;;47.90;26.67;;;;;;;6.42;51.84;102540.34;5087614;28;20048;-69
2022/12/17 13:56:28;;;;;;;49.72;26.52;;;;;;;6.43;51.26;102550.88;5098588;28;20491;-70
2022/12/17 13:58:58;;;;;;;48.08;27.38;;;;;;;6.30;51.67;102549.56;5098017;28;20056;-70
2022/12/17 14:01:44;;;;;;;50.08;27.60;;;;;;;6.12;52.33;102544.22;5099347;28;20334;-70
2022/12/17 14:04:21;;;;;;;44.13;24.73;;;;;;;5.91;52.64;102552.50;5098139;28;20044;-69
2022/12/17 14:06:50;;;;;;;49.50;26.27;;;;;;;5.73;53.20;102551.56;5099233;28;20048;-69
2022/12/17 14:09:21;;;;;;;49.97;27.67;;;;;;;5.61;53.66;102552.75;5088665;28;20131;-67
2022/12/17 14:14:37;;;;;;;49.80;26.73;;;;;;;5.42;53.85;102551.84;5103226;28;20119;-68
2022/12/17 14:17:05;;;;;;;46.40;25.67;;;;;;;5.36;54.58;102556.94;5099104;28;20572;-69
2022/12/17 14:19:33;;;;;;;48.25;26.15;;;;;;;5.28;54.46;102557.66;5101874;28;20044;-69
2022/12/17 14:22:03;;;;;;;48.50;26.80;;;;;;;5.23;54.39;102559.91;5092285;28;20044;-69
2022/12/17 14:24:30;;;;;;;50.40;26.17;;;;;;;5.16;54.87;102566.84;5100262;28;20055;-70
2022/12/17 14:27:00;;;;;;;48.58;26.80;;;;;;;5.15;54.41;102558.00;5097972;28;20055;-70
2022/12/17 14:29:31;;;;;;;54.65;27.48;;;;;;;5.29;54.85;102553.16;5097738;28;20128;-70
2022/12/17 14:32:01;;;;;;;49.28;26.55;;;;;;;5.41;54.31;102560.00;5099630;28;20121;-71
2022/12/17 14:34:39;;;;;;;51.22;28.15;;;;;;;5.53;53.49;102551.66;5103919;28;20047;-70
2022/12/17 14:37:18;;;;;;;45.15;24.42;;;;;;;5.78;53.17;102570.66;5111911;28;20044;-70
2022/12/17 14:39:47;;;;;;;52.70;28.05;;;;;;;5.93;52.55;102571.03;5100583;28;20043;-70
2022/12/17 14:42:29;;;;;;;51.70;26.63;;;;;;;6.05;52.40;102575.16;5104621;28;20166;-70
2022/12/17 14:44:59;;;;;;;50.88;26.88;;;;;;;6.00;52.34;102570.28;5101248;28;20446;-70
2022/12/17 14:47:29;;;;;;;48.65;26.48;;;;;;;5.90;52.75;102579.31;5109249;28;20119;-70
2022/12/17 14:50:04;;;;;;;49.70;27.30;;;;;;;5.76;52.68;102581.47;5104267;28;20367;-69
2022/12/17 14:52:51;;;;;;;51.38;26.90;;;;;;;5.61;53.35;102582.94;5111139;28;20039;-70
2022/12/17 14:55:38;;;;;;;53.08;27.27;;;;;;;5.51;53.74;102574.13;5105257;28;20090;-69
2022/12/17 14:58:24;;;;;;;53.28;27.30;;;;;;;5.43;53.70;102577.53;5102410;28;20056;-72
2022/12/17 15:00:56;;;;;;;51.63;26.83;;;;;;;5.37;54.13;102582.59;5102896;28;20050;-71
2022/12/17 15:03:27;;;;;;;53.22;27.42;;;;;;;5.32;54.29;102590.19;5094732;28;20048;-73
2022/12/17 15:05:58;;;;;;;55.40;28.58;;;;;;;5.42;54.00;102591.84;5099950;28;20330;-71
2022/12/17 15:08:31;;;;;;;54.15;28.45;;;;;;;5.57;53.79;102594.88;5101240;28;20059;-72
2022/12/17 15:10:59;;;;;;;51.33;27.58;;;;;;;5.72;53.08;102590.75;5100246;28;20040;-74
2022/12/17 15:13:27;;;;;;;49.03;26.58;;;;;;;5.86;52.95;102592.09;4751281;28;10000533;-70
2022/12/17 15:15:54;;;;;;;56.75;28.50;;;;;;;6.03;52.16;102593.16;5101030;28;20056;-71
2022/12/17 15:18:24;;;;;;;55.65;29.08;;;;;;;6.07;51.99;102586.53;5099899;28;20063;-72
2022/12/17 15:20:52;;;;;;;50.38;27.33;;;;;;;5.97;51.79;102586.59;5100012;28;20043;-70
2022/12/17 15:23:22;;;;;;;53.47;28.17;;;;;;;5.93;52.13;102606.56;5100915;28;20082;-69
2022/12/17 15:25:52;;;;;;;53.22;28.42;;;;;;;5.77;52.29;102615.16;5090489;28;20112;-68
2022/12/17 15:28:21;;;;;;;52.25;27.75;;;;;;;5.62;53.14;102613.13;5100460;28;20052;-70
2022/12/17 15:30:49;;;;;;;53.47;27.08;;;;;;;5.50;53.27;102621.28;5100599;28;20066;-72
2022/12/17 15:33:17;;;;;;;52.08;26.70;;;;;;;5.39;53.74;102610.78;5089912;28;20052;-72
2022/12/17 15:35:45;;;;;;;55.92;28.40;;;;;;;5.31;54.09;102615.16;5099799;28;20074;-73
2022/12/17 15:38:13;;;;;;;54.53;27.77;;;;;;;5.23;53.73;102619.38;5099837;28;20052;-72
2022/12/17 15:40:41;;;;;;;52.50;28.15;;;;;;;5.18;54.41;102616.34;5098309;28;20214;-73
2022/12/17 15:43:10;;;;;;;54.60;28.45;;;;;;;5.14;54.75;102624.78;5102628;28;20169;-69
2022/12/17 15:45:39;;;;;;;52.13;26.67;;;;;;;5.11;54.84;102627.72;5099294;28;20059;-69
2022/12/17 15:48:07;;;;;;;51.72;28.40;;;;;;;5.08;54.56;102636.00;5108033;28;20044;-69
2022/12/17 15:50:35;;;;;;;54.20;27.80;;;;;;;5.08;54.80;102636.84;5102373;28;20131;-71
2022/12/17 15:53:03;;;;;;;53.67;27.67;;;;;;;5.04;54.97;102631.94;5102380;28;20134;-67
2022/12/17 15:55:31;;;;;;;53.17;27.10;;;;;;;5.05;54.27;102637.13;5094072;28;20517;-69
2022/12/17 15:57:58;;;;;;;53.10;25.17;;;;;;;5.02;54.78;102636.56;5112912;28;20056;-66
2022/12/17 16:00:28;;;;;;;57.67;27.85;;;;;;;5.01;54.27;102637.53;5100990;28;20315;-64
2022/12/17 16:02:55;;;;;;;58.88;29.42;;;;;;;4.97;54.49;102641.47;5106530;28;20111;-68
2022/12/17 16:05:23;;;;;;;55.45;27.27;;;;;;;4.93;54.83;102645.41;5103299;28;20498;-66
2022/12/17 16:07:51;;;;;;;58.83;28.25;;;;;;;4.90;54.84;102652.69;5089204;28;20111;-67
2022/12/17 16:10:19;;;;;;;55.53;26.85;;;;;;;4.93;54.49;102656.91;5099345;28;20044;-66
2022/12/17 16:12:47;;;;;;;52.38;25.70;;;;;;;4.95;55.03;102652.28;5101336;28;20052;-65
2022/12/17 16:15:15;;;;;;;57.13;27.58;;;;;;;4.96;54.43;102645.13;5106022;28;20051;-68
2022/12/17 16:17:44;;;;;;;54.75;27.65;;;;;;;4.91;54.56;102648.22;5104374;28;20142;-65
2022/12/17 16:20:12;;;;;;;55.13;27.45;;;;;;;4.88;54.67;102644.00;5097194;28;20067;-66
2022/12/17 16:22:39;;;;;;;51.20;26.00;;;;;;;4.87;54.59;102641.47;5110588;28;20135;-66
2022/12/17 16:25:08;;;;;;;50.60;25.77;;;;;;;4.86;54.73;102639.78;5096683;28;20107;-65
2022/12/17 16:27:36;;;;;;;58.08;28.27;;;;;;;4.83;54.24;102638.25;5110927;28;20115;-65
2022/12/17 16:30:04;;;;;;;55.58;27.05;;;;;;;4.81;54.46;102645.53;5104308;28;20051;-65
2022/12/17 16:32:33;;;;;;;53.97;26.88;;;;;;;4.82;54.31;102649.03;5101254;28;20103;-66
2022/12/17 16:35:05;;;;;;;53.58;27.15;;;;;;;4.82;54.54;102641.06;5092856;28;20048;-66
2022/12/17 16:37:33;;;;;;;57.83;26.65;;;;;;;4.79;54.72;102644.00;5095421;28;20052;-65
2022/12/17 16:40:01;;;;;;;57.33;26.20;;;;;;;4.76;54.94;102639.78;5102387;28;20082;-66
2022/12/17 16:42:29;;;;;;;51.78;26.35;;;;;;;4.75;54.62;102639.94;5103553;28;20135;-65
2022/12/17 16:44:57;;;;;;;50.70;26.25;;;;;;;4.73;55.00;102647.22;5094106;28;20040;-66
2022/12/17 16:47:24;;;;;;;53.95;27.85;;;;;;;4.74;54.33;102646.25;5103277;28;20067;-66
2022/12/17 16:49:52;;;;;;;54.22;26.50;;;;;;;4.71;55.06;102652.69;5102714;28;20054;-64
2022/12/17 16:52:21;;;;;;;53.63;25.83;;;;;;;4.70;54.33;102650.16;4745255;28;9999990;-65
2022/12/17 16:54:49;;;;;;;53.47;28.23;;;;;;;4.66;55.02;102651.41;5096116;28;20046;-66
2022/12/17 16:57:17;;;;;;;56.03;25.38;;;;;;;4.66;54.51;102656.75;5113109;28;20107;-68
2022/12/17 16:59:44;;;;;;;52.35;25.85;;;;;;;4.64;54.72;102651.56;5101639;28;20047;-66
2022/12/17 17:02:14;;;;;;;53.53;26.50;;;;;;;4.72;54.29;102656.19;5102195;28;20048;-67
2022/12/17 17:04:42;;;;;;;57.58;26.10;;;;;;;4.85;54.26;102654.94;5090847;28;20058;-65
2022/12/17 17:07:09;;;;;;;49.10;25.17;;;;;;;4.99;53.35;102650.16;5102069;28;20074;-65
2022/12/17 17:09:39;;;;;;;52.72;24.70;;;;;;;5.16;53.08;102655.63;5096509;28;20054;-65
2022/12/17 17:12:07;;;;;;;50.20;26.15;;;;;;;5.30;52.63;102653.47;5100022;28;20047;-65
2022/12/17 17:14:35;;;;;;;51.08;25.73;;;;;;;5.46;52.42;102651.06;5108300;28;20075;-65
2022/12/17 17:17:03;;;;;;;56.95;27.17;;;;;;;5.65;51.98;102647.50;5111307;28;20075;-65
2022/12/17 17:19:31;;;;;;;51.08;26.55;;;;;;;5.80;51.70;102654.03;5093594;28;20063;-64
2022/12/17 17:21:58;;;;;;;57.75;26.70;;;;;;;5.97;50.84;102666.63;5097605;28;20040;-65
2022/12/17 17:24:26;;;;;;;53.45;26.88;;;;;;;6.08;50.79;102661.13;5097845;28;20071;-65
2022/12/17 17:26:55;;;;;;;52.20;26.23;;;;;;;6.15;50.22;102664.03;5102177;28;20120;-69
2022/12/17 17:29:23;;;;;;;55.38;27.83;;;;;;;6.19;50.36;102668.09;5097867;28;20507;-65
2022/12/17 17:31:51;;;;;;;60.63;29.85;;;;;;;6.17;50.28;102662.91;5096199;28;20048;-65
2022/12/17 17:34:38;;;;;;;59.50;28.13;;;;;;;6.07;50.43;102661.25;5098102;28;20134;-64
2022/12/17 17:37:06;;;;;;;54.20;27.85;;;;;;;5.89;51.13;102674.53;5099492;28;20560;-65
2022/12/17 17:39:34;;;;;;;55.35;27.50;;;;;;;5.68;51.18;102669.38;5108549;28;20051;-65
2022/12/17 17:42:03;;;;;;;54.85;26.95;;;;;;;5.49;51.72;102667.59;5097975;28;20385;-64
2022/12/17 17:44:31;;;;;;;58.97;29.33;;;;;;;5.34;51.96;102674.38;5104179;28;20047;-66
2022/12/17 17:46:59;;;;;;;55.60;28.20;;;;;;;5.21;52.74;102668.50;5106160;28;20074;-62
2022/12/17 17:49:27;;;;;;;58.90;28.73;;;;;;;5.15;52.88;102671.75;5098026;28;20063;-67
2022/12/17 17:51:55;;;;;;;58.95;27.95;;;;;;;5.04;52.85;102675.41;5093627;28;20059;-66
2022/12/17 17:54:39;;;;;;;58.22;27.17;;;;;;;4.99;53.34;102674.16;5089077;28;20232;-67
2022/12/17 17:57:09;;;;;;;55.42;26.75;;;;;;;4.95;53.25;102667.41;5091595;28;20050;-67
2022/12/17 17:59:38;;;;;;;57.70;27.55;;;;;;;4.97;53.40;102673.44;5106825;28;20079;-67
2022/12/17 18:02:07;;;;;;;59.33;28.52;;;;;;;4.90;53.03;102667.84;5104546;28;20043;-67
2022/12/17 18:04:35;;;;;;;59.80;28.70;;;;;;;4.93;52.85;102670.22;5100611;28;20074;-67
2022/12/17 18:07:03;;;;;;;52.97;25.80;;;;;;;4.91;53.48;102674.84;5100473;28;20059;-67
2022/12/17 18:09:51;;;;;;;55.60;25.67;;;;;;;4.88;52.97;102667.97;5096759;28;20047;-66
2022/12/17 18:15:06;;;;;;;62.00;29.42;;;;;;;4.85;52.74;102672.75;5092294;28;20111;-66
2022/12/17 18:17:45;;;;;;;59.47;27.85;;;;;;;5.00;52.97;102675.81;5098187;28;20121;-66
2022/12/17 18:20:14;;;;;;;58.53;27.90;;;;;;;5.14;52.40;102672.75;5102347;28;20448;-64
2022/12/17 18:22:42;;;;;;;65.03;26.85;;;;;;;5.28;52.17;102671.44;5093958;28;20558;-66
2022/12/17 18:25:09;;;;;;;57.35;27.98;;;;;;;5.46;51.97;102672.38;5102427;28;20074;-66
2022/12/17 18:27:39;;;;;;;54.58;26.70;;;;;;;5.63;51.11;102668.13;5107674;28;20131;-66
2022/12/17 18:30:07;;;;;;;53.63;26.10;;;;;;;5.83;50.74;102673.25;5100475;28;20056;-65
2022/12/17 18:32:35;;;;;;;59.38;27.40;;;;;;;6.01;50.06;102676.03;5105184;28;20104;-66
2022/12/17 18:35:03;;;;;;;50.03;25.48;;;;;;;6.10;49.83;102674.31;5102084;28;20143;-66
2022/12/17 18:37:31;;;;;;;54.20;25.77;;;;;;;6.22;49.63;102675.81;5093668;28;20397;-66
2022/12/17 18:39:58;;;;;;;51.13;25.10;;;;;;;6.28;49.66;102672.53;5102386;28;20101;-66
2022/12/17 18:45:13;;;;;;;47.38;25.60;;;;;;;6.36;49.20;102679.81;5086383;28;20067;-67
2022/12/17 18:47:43;;;;;;;49.58;23.30;;;;;;;6.23;49.04;102682.81;5095344;28;20066;-65
2022/12/17 18:50:11;;;;;;;49.35;24.15;;;;;;;6.11;49.59;102686.66;5109607;28;20051;-66
2022/12/17 18:52:39;;;;;;;47.65;24.10;;;;;;;5.92;49.91;102673.41;5100003;28;20116;-66
2022/12/17 18:55:07;;;;;;;53.42;25.10;;;;;;;5.73;50.42;102677.78;5100126;28;20411;-67
2022/12/17 18:57:35;;;;;;;53.22;26.70;;;;;;;5.49;51.09;102674.75;5095549;28;20058;-67
2022/12/17 19:00:03;;;;;;;50.95;24.92;;;;;;;5.42;51.14;102682.50;5110663;28;20126;-68
2022/12/17 19:02:32;;;;;;;52.25;25.08;;;;;;;5.31;51.22;102687.13;5094216;28;20048;-67
2022/12/17 19:05:00;;;;;;;51.58;25.02;;;;;;;5.21;51.98;102684.47;5112249;28;20048;-67
2022/12/17 19:07:28;;;;;;;51.10;25.02;;;;;;;5.14;52.36;102684.25;5105320;28;20054;-67
2022/12/17 19:09:55;;;;;;;54.35;25.48;;;;;;;5.07;52.03;102688.44;5094218;28;20600;-67
2022/12/17 19:12:23;;;;;;;52.45;25.48;;;;;;;4.93;52.20;102666.72;5094024;28;20052;-67
2022/12/17 19:14:51;;;;;;;51.53;24.55;;;;;;;4.95;52.49;102681.56;5104410;28;20043;-66
2022/12/17 19:17:18;;;;;;;49.20;25.50;;;;;;;4.89;52.55;102696.31;5103265;28;21276;-67
2022/12/17 19:19:48;;;;;;;51.25;25.48;;;;;;;4.82;52.53;102689.84;5102822;28;20131;-65
2022/12/17 19:22:16;;;;;;;50.55;24.88;;;;;;;4.82;52.60;102697.00;5103912;28;20143;-66
2022/12/17 19:24:44;;;;;;;53.92;25.92;;;;;;;4.74;53.08;102702.16;5099551;28;20135;-67
2022/12/17 19:27:11;;;;;;;50.08;25.48;;;;;;;4.72;53.32;102707.63;4757677;28;10000463;-68
2022/12/17 19:29:39;;;;;;;50.28;23.35;;;;;;;4.74;53.37;102710.16;5102019;28;20043;-68
2022/12/17 19:32:12;;;;;;;49.00;24.42;;;;;;;4.86;52.68;102715.22;5106662;28;20115;-67
2022/12/17 19:34:40;;;;;;;47.35;24.80;;;;;;;5.02;52.27;102708.50;5100253;28;20598;-67
2022/12/17 19:37:09;;;;;;;56.75;28.58;;;;;;;5.19;51.63;102710.47;5102015;28;20151;-66
2022/12/17 19:39:37;;;;;;;49.45;25.00;;;;;;;5.36;51.01;102717.72;5105777;28;20040;-66
2022/12/17 19:42:04;;;;;;;51.15;24.67;;;;;;;5.45;50.85;102708.88;5096660;28;20052;-66
2022/12/17 19:44:33;;;;;;;44.30;24.13;;;;;;;5.61;50.36;102715.44;5114850;28;20048;-66
2022/12/17 19:47:00;;;;;;;50.03;23.90;;;;;;;5.59;50.80;102717.41;5102460;28;20164;-67
2022/12/17 19:49:28;;;;;;;46.22;23.63;;;;;;;5.48;51.01;102718.41;5104482;28;20048;-67
2022/12/17 19:51:56;;;;;;;44.45;22.10;;;;;;;5.34;51.04;102718.84;5094778;28;20111;-67
2022/12/17 19:54:25;;;;;;;45.67;24.58;;;;;;;5.19;51.49;102711.31;5100663;28;20107;-67
2022/12/17 19:56:53;;;;;;;44.25;22.50;;;;;;;5.09;52.31;102712.28;5104878;28;20044;-68
2022/12/17 19:59:20;;;;;;;44.00;21.35;;;;;;;5.00;52.03;102708.66;5103996;28;20051;-67
2022/12/17 20:01:48;;;;;;;45.60;23.60;;;;;;;4.93;52.20;102712.00;5098408;28;20135;-68
2022/12/17 20:04:17;;;;;;;44.67;24.25;;;;;;;4.84;52.87;102709.19;5101741;28;20052;-67
2022/12/17 20:06:44;;;;;;;46.20;23.60;;;;;;;4.79;52.78;102702.59;5106401;28;20507;-67
2022/12/17 20:09:14;;;;;;;45.67;23.58;;;;;;;4.74;52.98;102703.00;5104780;28;20059;-66
2022/12/17 20:11:43;;;;;;;49.28;24.30;;;;;;;4.68;52.43;102702.72;5100725;28;20131;-68
2022/12/17 20:14:13;;;;;;;51.85;24.50;;;;;;;4.64;52.68;102714.63;5097890;28;20067;-66
2022/12/17 20:16:42;;;;;;;45.33;23.67;;;;;;;4.62;52.76;102720.09;5095431;28;20611;-66
2022/12/17 20:19:13;;;;;;;41.83;22.75;;;;;;;4.58;53.21;102735.50;5093762;28;20052;-66
2022/12/17 20:21:41;;;;;;;50.17;24.13;;;;;;;4.54;53.53;102743.91;5096284;28;20045;-67
2022/12/17 20:24:10;;;;;;;45.72;23.15;;;;;;;4.49;52.85;102746.13;5098429;28;20370;-66
2022/12/17 20:26:38;;;;;;;47.65;24.65;;;;;;;4.46;53.72;102755.22;5099400;28;20132;-66
2022/12/17 20:29:08;;;;;;;41.75;22.08;;;;;;;4.43;52.82;102752.81;5098180;28;20137;-65
2022/12/17 20:31:36;;;;;;;42.40;23.60;;;;;;;4.41;53.32;102745.94;5114343;28;20147;-65
2022/12/17 20:34:05;;;;;;;42.58;21.58;;;;;;;4.36;53.58;102733.03;5107668;28;20044;-66
2022/12/17 20:36:34;;;;;;;44.03;22.50;;;;;;;4.35;53.31;102731.38;5105405;28;20155;-65
2022/12/17 20:39:01;;;;;;;46.50;23.20;;;;;;;4.33;53.55;102730.66;5101375;28;20050;-65
2022/12/17 20:41:30;;;;;;;42.67;20.95;;;;;;;4.32;53.00;102728.13;5102908;28;20068;-67
2022/12/17 20:44:02;;;;;;;41.67;21.80;;;;;;;4.30;53.14;102728.25;5097725;28;20047;-67
2022/12/17 20:46:31;;;;;;;43.67;21.85;;;;;;;4.28;53.25;102721.38;5098737;28;20422;-67
2022/12/17 20:49:00;;;;;;;39.97;21.50;;;;;;;4.26;53.60;102726.84;5102309;28;20476;-67
2022/12/17 20:51:30;;;;;;;42.22;21.27;;;;;;;4.23;53.20;102721.78;5098191;28;20060;-67
2022/12/17 20:53:59;;;;;;;37.42;20.38;;;;;;;4.24;53.20;102718.16;5100985;28;20051;-66
2022/12/17 20:56:30;;;;;;;40.55;20.67;;;;;;;4.22;53.57;102720.09;5113218;28;20304;-66
2022/12/17 20:59:01;;;;;;;39.25;20.40;;;;;;;4.19;53.50;102713.22;5095057;28;20055;-66
2022/12/17 21:01:33;;;;;;;41.13;20.45;;;;;;;4.20;53.60;102724.72;5099130;28;20039;-67
2022/12/17 21:04:02;;;;;;;43.20;22.67;;;;;;;4.19;52.77;102715.06;5095412;28;20044;-65
2022/12/17 21:06:33;;;;;;;40.33;20.50;;;;;;;4.17;52.86;102717.00;5099830;28;20044;-66
2022/12/17 21:09:02;;;;;;;37.15;20.02;;;;;;;4.17;52.97;102733.81;5091713;28;20051;-67
2022/12/17 21:11:31;;;;;;;38.83;20.30;;;;;;;4.17;53.53;102730.31;5096011;28;20083;-66
2022/12/17 21:14:02;;;;;;;39.83;22.23;;;;;;;4.17;53.39;102725.00;5100109;28;20575;-66
2022/12/17 21:16:33;;;;;;;42.15;21.23;;;;;;;4.14;53.18;102727.91;5103842;28;20121;-70
2022/12/17 21:19:02;;;;;;;43.08;21.02;;;;;;;4.14;52.73;102726.09;5107792;28;20092;-68
2022/12/17 21:21:33;;;;;;;43.83;20.77;;;;;;;4.10;53.21;102727.34;5101389;28;20062;-67
2022/12/17 21:24:01;;;;;;;35.33;20.27;;;;;;;4.11;52.84;102742.34;5104555;28;20058;-68
2022/12/17 21:26:30;;;;;;;40.70;20.83;;;;;;;4.09;52.74;102738.13;5099178;28;20076;-69
2022/12/17 21:28:59;;;;;;;37.35;20.00;;;;;;;4.09;53.51;102735.47;5099401;28;20086;-68
2022/12/17 21:31:29;;;;;;;38.30;19.58;;;;;;;4.07;53.29;102732.09;5100051;28;20051;-68
2022/12/17 21:34:00;;;;;;;39.65;20.90;;;;;;;4.07;53.60;102740.91;5105512;28;20048;-68
2022/12/17 21:36:29;;;;;;;37.80;19.55;;;;;;;4.05;52.77;102742.03;5103466;28;20058;-69
2022/12/17 21:38:58;;;;;;;36.70;19.23;;;;;;;4.03;52.85;102746.63;5103036;28;20073;-68
2022/12/17 21:41:31;;;;;;;35.40;19.23;;;;;;;4.03;53.81;102750.13;5100174;28;20087;-69
2022/12/17 21:44:01;;;;;;;35.38;18.30;;;;;;;4.05;53.20;102750.00;5102591;28;20040;-68
2022/12/17 21:46:29;;;;;;;34.53;20.13;;;;;;;4.04;52.78;102743.00;5102230;28;20040;-68
2022/12/17 21:49:01;;;;;;;38.67;19.85;;;;;;;4.00;53.42;102742.41;5094620;28;20044;-69
2022/12/17 21:51:29;;;;;;;35.33;19.58;;;;;;;3.96;52.58;102740.16;5111901;28;20379;-69
2022/12/17 21:53:58;;;;;;;37.47;18.65;;;;;;;3.98;53.08;102744.38;5102651;28;20123;-68
2022/12/17 21:56:27;;;;;;;35.15;19.83;;;;;;;3.95;53.36;102757.94;5103004;28;20048;-69
2022/12/17 21:58:57;;;;;;;37.38;19.90;;;;;;;3.92;52.86;102753.72;5094270;28;20048;-69
2022/12/17 22:01:26;;;;;;;37.80;19.33;;;;;;;3.92;53.44;102760.84;5106626;28;20412;-69
2022/12/17 22:03:57;;;;;;;38.97;20.67;;;;;;;3.91;52.70;102768.00;5103700;28;20055;-69
2022/12/17 22:06:28;;;;;;;35.38;19.83;;;;;;;3.90;52.88;102752.16;5096479;28;20108;-70
2022/12/17 22:09:02;;;;;;;38.28;20.50;;;;;;;3.88;53.17;102754.09;5099165;28;20047;-69
2022/12/17 22:11:48;;;;;;;37.67;18.63;;;;;;;3.87;52.49;102766.56;5094789;28;20142;-69
2022/12/17 22:14:15;;;;;;;41.97;21.55;;;;;;;3.86;52.63;102748.06;5101955;28;20080;-69
2022/12/17 22:16:48;;;;;;;38.80;19.63;;;;;;;3.86;53.19;102756.06;5109649;28;20071;-69
2022/12/17 22:19:19;;;;;;;38.22;20.58;;;;;;;3.85;52.80;102760.53;5109127;28;20436;-69
2022/12/17 22:21:51;;;;;;;39.33;20.33;;;;;;;3.80;53.10;102757.41;5099226;28;20078;-69
2022/12/17 22:24:24;;;;;;;39.00;20.08;;;;;;;3.84;52.64;102768.63;5093704;28;20119;-69
2022/12/17 22:26:58;;;;;;;36.05;19.95;;;;;;;3.82;52.32;102773.25;5106481;28;20040;-69
2022/12/17 22:35:03;;;;;;;35.80;19.25;;;;;;;3.77;52.88;102781.63;5035867;28;20100;-69
2022/12/17 22:37:52;;;;;;;33.00;19.58;;;;;;;3.74;52.82;102773.06;5042867;28;20050;-69
2022/12/17 22:40:40;;;;;;;37.08;19.63;;;;;;;3.72;52.27;102775.84;5038031;28;20061;-68
2022/12/17 22:43:29;;;;;;;36.35;19.10;;;;;;;3.72;52.41;102780.31;5034214;28;20046;-68
2022/12/17 22:46:17;;;;;;;32.67;17.77;;;;;;;3.73;53.01;102784.66;5043967;28;20060;-68
2022/12/17 22:48:45;;;;;;;32.60;17.95;;;;;;;3.71;52.57;102770.66;5039441;28;20550;-69
2022/12/17 22:51:13;;;;;;;33.55;19.00;;;;;;;3.70;52.62;102761.84;5049000;28;20119;-69
2022/12/17 22:53:51;;;;;;;33.80;18.83;;;;;;;3.67;52.18;102767.41;5039823;28;20041;-68
2022/12/17 22:56:19;;;;;;;36.33;18.88;;;;;;;3.66;52.43;102768.38;5046175;28;20176;-68
2022/12/17 22:59:07;;;;;;;36.00;18.85;;;;;;;3.62;52.15;102761.63;5048774;28;20052;-68
2022/12/17 23:01:35;;;;;;;36.10;18.45;;;;;;;3.63;52.06;102767.81;5045821;28;20045;-68
2022/12/17 23:04:03;;;;;;;40.45;20.10;;;;;;;3.60;52.33;102759.13;5047458;28;20054;-68
2022/12/17 23:06:31;;;;;;;37.58;19.75;;;;;;;3.50;52.36;102741.41;5040413;28;20045;-69
2022/12/17 23:09:00;;;;;;;40.72;19.38;;;;;;;3.59;52.65;102753.91;5077976;28;20136;-67
2022/12/17 23:11:30;;;;;;;36.72;20.25;;;;;;;3.58;52.74;102762.88;5098717;28;20052;-69
2022/12/17 23:13:58;;;;;;;33.50;18.77;;;;;;;3.56;52.71;102760.34;5100503;28;20054;-68
2022/12/17 23:16:25;;;;;;;37.33;20.15;;;;;;;3.55;52.32;102758.66;5107831;28;20078;-68
2022/12/17 23:18:54;;;;;;;40.05;19.90;;;;;;;3.54;52.52;102754.31;5102888;28;20500;-68
2022/12/17 23:21:24;;;;;;;35.28;20.20;;;;;;;3.53;52.36;102743.81;5100274;28;20071;-68
2022/12/17 23:23:53;;;;;;;35.75;19.67;;;;;;;3.50;52.37;102734.28;5102800;28;20044;-67
2022/12/17 23:26:24;;;;;;;37.70;21.20;;;;;;;3.48;51.91;102730.91;5110722;28;20059;-68
2022/12/17 23:28:55;;;;;;;39.38;19.83;;;;;;;3.45;52.63;102725.03;5101272;28;20044;-68
2022/12/17 23:31:26;;;;;;;35.90;18.15;;;;;;;3.47;51.59;102736.34;5097223;28;20114;-68
2022/12/17 23:33:54;;;;;;;35.45;19.17;;;;;;;3.45;52.12;102739.16;5098157;28;20136;-69
2022/12/17 23:36:24;;;;;;;41.53;20.00;;;;;;;3.46;51.54;102738.19;5107977;28;20055;-68
2022/12/17 23:38:52;;;;;;;36.67;20.45;;;;;;;3.39;51.91;102734.38;5102148;28;20048;-68
2022/12/17 23:41:24;;;;;;;33.13;18.23;;;;;;;3.41;51.61;102748.38;5104736;28;20048;-68
2022/12/17 23:43:52;;;;;;;39.63;20.27;;;;;;;3.37;52.00;102744.28;5101972;28;20084;-67
2022/12/17 23:46:22;;;;;;;39.20;19.08;;;;;;;3.38;51.73;102739.81;5113315;28;21045;-68
2022/12/17 23:48:50;;;;;;;29.98;17.52;;;;;;;3.33;51.95;102748.16;5101124;28;20047;-68
2022/12/17 23:51:20;;;;;;;32.80;18.52;;;;;;;3.37;51.38;102759.38;5103194;28;20477;-68
2022/12/17 23:53:48;;;;;;;36.58;19.02;;;;;;;3.36;51.46;102760.34;5104667;28;20130;-68
2022/12/17 23:56:18;;;;;;;35.60;18.83;;;;;;;3.34;52.03;102767.59;5101342;28;20044;-68
2022/12/17 23:58:48;;;;;;;30.77;17.65;;;;;;;3.34;51.37;102770.25;5092525;28;20075;-67
